createdAt,value
2022-10-04T00:00:26.426Z,56.64
2022-10-04T00:02:56.627Z,57.70
2022-10-04T00:05:25.769Z,57.58
2022-10-04T00:07:57.042Z,58.60
2022-10-04T00:10:27.112Z,56.80
2022-10-04T00:12:58.919Z,58.33
2022-10-04T00:15:27.991Z,58.55
2022-10-04T00:18:01.596Z,57.72
2022-10-04T00:20:48.195Z,59.20
2022-10-04T00:23:30.026Z,57.06
2022-10-04T00:25:58.632Z,57.20
2022-10-04T00:28:32.719Z,55.58
2022-10-04T00:31:24.806Z,56.45
2022-10-04T00:33:54.325Z,58.03
2022-10-04T00:36:32.967Z,57.36
2022-10-04T00:39:05.337Z,55.22
2022-10-04T00:41:53.581Z,57.55
2022-10-04T00:44:26.861Z,55.66
2022-10-04T00:46:55.947Z,57.65
2022-10-04T00:49:26.171Z,56.67
2022-10-04T00:51:57.301Z,58.71
2022-10-04T00:54:30.996Z,54.97
2022-10-04T00:57:01.442Z,57.49
2022-10-04T00:59:32.816Z,57.69
2022-10-04T01:02:03.883Z,57.18
2022-10-04T01:04:38.127Z,56.74
2022-10-04T01:07:07.530Z,57.41
2022-10-04T01:09:37.888Z,56.06
2022-10-04T01:12:08.550Z,56.48
2022-10-04T01:14:43.262Z,54.58
2022-10-04T01:17:11.042Z,56.08
2022-10-04T01:19:41.434Z,57.42
2022-10-04T01:22:14.130Z,57.68
2022-10-04T01:24:43.943Z,56.79
2022-10-04T01:27:30.119Z,57.65
2022-10-04T01:29:58.967Z,57.56
2022-10-04T01:32:26.740Z,57.08
2022-10-04T01:34:54.535Z,54.81
2022-10-04T01:37:22.316Z,57.14
2022-10-04T01:39:51.468Z,58.23
2022-10-04T01:42:23.091Z,57.67
2022-10-04T01:44:56.418Z,57.38
2022-10-04T01:47:32.604Z,57.95
2022-10-04T01:50:03.963Z,56.30
2022-10-04T01:52:35.014Z,57.25
2022-10-04T01:55:06.091Z,57.67
2022-10-04T01:57:36.565Z,56.87
2022-10-04T02:00:06.958Z,57.80
2022-10-04T02:02:37.692Z,58.88
2022-10-04T02:05:08.207Z,57.93
2022-10-04T02:07:38.790Z,58.90
2022-10-04T02:10:10.388Z,60.07
2022-10-04T02:12:38.970Z,58.84
2022-10-04T02:15:11.507Z,57.25
2022-10-04T02:17:43.049Z,57.16
2022-10-04T02:20:12.919Z,58.36
2022-10-04T02:22:43.169Z,58.01
2022-10-04T02:25:14.572Z,56.13
2022-10-04T02:27:42.417Z,58.05
2022-10-04T02:30:11.462Z,57.95
2022-10-04T02:32:57.577Z,56.14
2022-10-04T02:35:27.392Z,57.52
2022-10-04T02:38:04.062Z,57.64
2022-10-04T02:40:40.758Z,57.13
2022-10-04T02:43:14.959Z,56.59
2022-10-04T02:45:50.647Z,56.95
2022-10-04T02:48:36.758Z,57.98
2022-10-04T02:51:17.369Z,57.85
2022-10-04T02:54:02.306Z,59.03
2022-10-04T02:56:33.306Z,58.26
2022-10-04T02:59:03.760Z,58.46
2022-10-04T03:01:44.921Z,57.75
2022-10-04T03:04:15.883Z,56.30
2022-10-04T03:06:46.774Z,56.89
2022-10-04T03:09:16.519Z,56.43
2022-10-04T03:11:47.835Z,58.45
2022-10-04T03:14:19.052Z,57.07
2022-10-04T03:16:53.749Z,57.62
2022-10-04T03:19:24.617Z,57.82
2022-10-04T03:21:55.259Z,57.93
2022-10-04T03:24:26.074Z,58.38
2022-10-04T03:26:57.322Z,56.72
2022-10-04T03:29:28.059Z,56.87
2022-10-04T03:31:58.578Z,57.95
2022-10-04T03:34:29.971Z,58.36
2022-10-04T03:37:00.207Z,56.47
2022-10-04T03:39:33.592Z,58.14
2022-10-04T03:42:08.267Z,57.86
2022-10-04T03:44:37.109Z,56.31
2022-10-04T03:47:11.470Z,57.88
2022-10-04T03:49:41.084Z,60.16
2022-10-04T03:52:09.515Z,59.92
2022-10-04T03:54:37.349Z,59.30
2022-10-04T03:57:07.199Z,58.59
2022-10-04T03:59:36.544Z,57.45
2022-10-04T04:02:07.127Z,57.29
2022-10-04T04:04:42.005Z,58.84
2022-10-04T04:07:13.148Z,58.66
2022-10-04T04:09:44.150Z,57.21
2022-10-04T04:12:17.047Z,56.79
2022-10-04T04:14:45.783Z,58.40
2022-10-04T04:17:35.769Z,58.93
2022-10-04T04:20:07.699Z,58.54
2022-10-04T04:22:36.678Z,56.95
2022-10-04T04:25:08.322Z,58.16
2022-10-04T04:27:40.574Z,57.79
2022-10-04T04:30:09.371Z,56.85
2022-10-04T04:32:39.679Z,58.37
2022-10-04T04:35:08.544Z,57.99
2022-10-04T04:37:36.718Z,57.96
2022-10-04T04:40:20.790Z,58.42
2022-10-04T04:42:50.615Z,58.89
2022-10-04T04:45:20.975Z,57.72
2022-10-04T04:47:50.443Z,57.33
2022-10-04T04:50:19.362Z,57.23
2022-10-04T04:52:48.330Z,57.21
2022-10-04T04:55:19.439Z,58.67
2022-10-04T04:57:47.916Z,58.78
2022-10-04T05:00:23.605Z,56.76
2022-10-04T05:02:56.228Z,58.16
2022-10-04T05:05:28.006Z,59.36
2022-10-04T05:08:10.429Z,58.25
2022-10-04T05:10:40.083Z,58.89
2022-10-04T05:13:10.030Z,58.99
2022-10-04T05:15:41.650Z,58.12
2022-10-04T05:18:29.362Z,57.65
2022-10-04T05:20:58.686Z,57.22
2022-10-04T05:23:26.424Z,57.88
2022-10-04T05:25:54.398Z,57.79
2022-10-04T05:28:22.359Z,57.63
2022-10-04T05:31:01.606Z,59.71
2022-10-04T05:33:39.636Z,58.41
2022-10-04T05:36:28.378Z,58.90
2022-10-04T05:39:03.484Z,57.64
2022-10-04T05:41:33.981Z,57.81
2022-10-04T05:44:02.713Z,58.49
2022-10-04T05:46:32.473Z,59.29
2022-10-04T05:49:02.098Z,59.29
2022-10-04T05:51:31.286Z,59.49
2022-10-04T05:54:01.243Z,59.01
2022-10-04T05:56:48.881Z,58.53
2022-10-04T05:59:24.380Z,57.74
2022-10-04T06:01:58.111Z,57.47
2022-10-04T06:04:42.600Z,57.03
2022-10-04T06:07:16.612Z,58.90
2022-10-04T06:09:52.157Z,58.25
2022-10-04T06:12:30.175Z,58.11
2022-10-04T06:15:09.166Z,58.33
2022-10-04T06:17:47.448Z,59.32
2022-10-04T06:20:29.737Z,59.71
2022-10-04T06:22:59.855Z,58.66
2022-10-04T06:25:30.055Z,58.63
2022-10-04T06:28:02.267Z,58.90
2022-10-04T06:30:32.885Z,58.99
2022-10-04T06:33:15.229Z,58.86
2022-10-04T06:35:53.095Z,59.07
2022-10-04T06:38:35.833Z,58.38
2022-10-04T06:41:16.733Z,58.34
2022-10-04T06:43:56.776Z,59.04
2022-10-04T06:46:27.957Z,59.17
2022-10-04T06:49:08.338Z,60.70
2022-10-04T06:51:44.641Z,60.87
2022-10-04T06:54:20.838Z,59.92
2022-10-04T06:57:00.581Z,60.86
2022-10-04T06:59:45.090Z,59.25
2022-10-04T07:02:16.075Z,60.39
2022-10-04T07:05:07.713Z,60.32
2022-10-04T07:07:36.991Z,59.90
2022-10-04T07:10:16.649Z,59.06
2022-10-04T07:12:51.306Z,58.56
2022-10-04T07:15:21.355Z,58.98
2022-10-04T07:17:50.116Z,58.74
2022-10-04T07:20:25.258Z,59.30
2022-10-04T07:22:57.327Z,59.40
2022-10-04T07:25:27.361Z,60.18
2022-10-04T07:28:11.024Z,60.41
2022-10-04T07:30:41.401Z,59.62
2022-10-04T07:33:09.973Z,58.79
2022-10-04T07:35:44.944Z,58.67
2022-10-04T07:38:17.236Z,59.66
2022-10-04T07:40:53.338Z,59.02
2022-10-04T07:43:23.565Z,60.94
2022-10-04T07:45:51.928Z,60.27
2022-10-04T07:48:23.385Z,60.71
2022-10-04T07:50:59.178Z,60.41
2022-10-04T07:53:29.059Z,61.67
2022-10-04T07:55:58.519Z,62.85
2022-10-04T07:58:30.152Z,62.99
2022-10-04T08:00:59.932Z,61.13
2022-10-04T08:03:41.659Z,61.08
2022-10-04T08:06:14.289Z,60.75
2022-10-04T08:08:49.584Z,60.76
2022-10-04T08:11:24.503Z,64.18
2022-10-04T08:13:54.901Z,65.58
2022-10-04T08:16:32.402Z,63.19
2022-10-04T08:19:07.383Z,62.90
2022-10-04T08:21:48.923Z,62.59
2022-10-04T08:24:21.469Z,63.19
2022-10-04T08:27:14.138Z,62.83
2022-10-04T08:29:58.163Z,63.15
2022-10-04T08:32:32.785Z,62.35
2022-10-04T08:35:16.401Z,66.55
2022-10-04T08:37:55.762Z,63.05
2022-10-04T08:40:44.110Z,64.17
2022-10-04T08:43:34.119Z,62.79
2022-10-04T08:46:15.027Z,62.00
2022-10-04T08:49:02.871Z,61.24
2022-10-04T08:51:51.160Z,61.78
2022-10-04T08:54:35.647Z,61.72
2022-10-04T08:57:16.311Z,61.07
2022-10-04T08:59:57.887Z,62.13
2022-10-04T09:02:49.795Z,61.85
2022-10-04T09:05:26.303Z,61.42
2022-10-04T09:08:11.964Z,61.62
2022-10-04T09:11:08.106Z,65.71
2022-10-04T09:13:45.107Z,62.86
2022-10-04T09:16:19.851Z,61.79
2022-10-04T09:18:54.104Z,64.96
2022-10-04T09:21:40.951Z,62.64
2022-10-04T09:24:28.779Z,63.84
2022-10-04T09:27:08.864Z,64.25
2022-10-04T09:29:53.012Z,62.60
2022-10-04T09:32:49.137Z,63.71
2022-10-04T09:35:25.251Z,63.08
2022-10-04T09:38:03.909Z,63.05
2022-10-04T09:40:53.857Z,62.47
2022-10-04T09:43:59.002Z,62.03
2022-10-04T09:46:44.901Z,63.79
2022-10-04T09:49:22.522Z,62.67
2022-10-04T09:52:02.197Z,61.78
2022-10-04T09:54:47.682Z,64.93
2022-10-04T09:57:19.608Z,62.38
2022-10-04T10:00:07.034Z,61.26
2022-10-04T10:02:58.516Z,61.16
2022-10-04T10:05:32.680Z,62.29
2022-10-04T10:08:07.906Z,64.84
2022-10-04T10:10:58.610Z,64.64
2022-10-04T10:13:42.183Z,62.71
2022-10-04T10:16:29.904Z,61.86
2022-10-04T10:19:07.096Z,62.63
2022-10-04T10:21:48.024Z,62.16
2022-10-04T10:24:39.740Z,64.58
2022-10-04T10:27:14.939Z,64.15
2022-10-04T10:29:59.342Z,64.92
2022-10-04T10:32:39.602Z,63.06
2022-10-04T10:35:28.055Z,62.19
2022-10-04T10:38:14.106Z,62.31
2022-10-04T10:40:49.203Z,62.04
2022-10-04T10:43:38.444Z,61.20
2022-10-04T10:46:19.175Z,60.83
2022-10-04T10:49:06.101Z,60.90
2022-10-04T10:51:44.308Z,61.00
2022-10-04T10:54:42.452Z,60.74
2022-10-04T10:57:26.181Z,60.45
2022-10-04T11:00:12.019Z,60.52
2022-10-04T11:03:12.120Z,60.81
2022-10-04T11:05:58.056Z,60.27
2022-10-04T11:08:43.994Z,61.65
2022-10-04T11:11:33.363Z,60.43
2022-10-04T11:14:48.164Z,60.93
2022-10-04T11:17:35.028Z,61.64
2022-10-04T11:20:43.416Z,60.69
2022-10-04T11:23:51.980Z,60.87
2022-10-04T11:26:48.431Z,62.30
2022-10-04T11:29:32.852Z,61.76
2022-10-04T11:32:35.520Z,64.67
2022-10-04T11:35:39.865Z,63.26
2022-10-04T11:38:17.599Z,63.59
2022-10-04T11:41:11.016Z,61.99
2022-10-04T11:43:57.030Z,61.52
2022-10-04T11:46:36.340Z,60.94
2022-10-04T11:49:35.669Z,61.51
2022-10-04T11:52:26.987Z,62.97
2022-10-04T11:55:22.116Z,62.88
2022-10-04T11:57:57.163Z,62.50
2022-10-04T12:00:27.874Z,62.01
2022-10-04T12:03:37.253Z,62.46
2022-10-04T12:06:24.459Z,61.26
2022-10-04T12:09:05.494Z,61.91
2022-10-04T12:12:19.764Z,61.28
2022-10-04T12:15:05.578Z,63.79
2022-10-04T12:17:52.533Z,61.80
2022-10-04T12:20:38.857Z,62.59
2022-10-04T12:23:49.423Z,62.82
2022-10-04T12:26:56.309Z,63.85
2022-10-04T12:29:48.856Z,62.97
2022-10-04T12:32:24.618Z,62.17
2022-10-04T12:35:00.056Z,62.24
2022-10-04T12:37:39.782Z,61.62
2022-10-04T12:40:22.902Z,64.07
2022-10-04T12:42:59.701Z,64.18
2022-10-04T12:45:53.210Z,64.51
2022-10-04T12:48:32.887Z,62.72
2022-10-04T12:51:13.527Z,62.37
2022-10-04T12:53:49.931Z,61.38
2022-10-04T12:56:33.593Z,60.62
2022-10-04T12:59:18.229Z,60.61
2022-10-04T13:01:55.949Z,60.92
2022-10-04T13:04:38.992Z,59.96
2022-10-04T13:07:48.516Z,61.68
2022-10-04T13:10:33.654Z,61.79
2022-10-04T13:13:24.785Z,61.14
2022-10-04T13:18:56.385Z,61.34
2022-10-04T13:21:58.084Z,60.78
2022-10-04T13:24:31.963Z,61.23
2022-10-04T13:27:08.571Z,60.77
2022-10-04T13:29:46.946Z,61.68
2022-10-04T13:32:19.656Z,61.21
2022-10-04T13:34:56.479Z,60.77
2022-10-04T13:37:37.407Z,61.28
2022-10-04T13:40:37.301Z,62.14
2022-10-04T13:43:43.121Z,62.11
2022-10-04T13:46:24.087Z,62.07
2022-10-04T13:49:02.412Z,61.29
2022-10-04T13:51:46.768Z,60.30
2022-10-04T13:54:47.151Z,60.72
2022-10-04T13:57:26.970Z,60.51
2022-10-04T14:00:05.259Z,61.54
2022-10-04T14:03:00.218Z,61.75
2022-10-04T14:06:17.774Z,61.79
2022-10-04T14:09:17.774Z,61.01
2022-10-04T14:12:40.234Z,60.87
2022-10-04T14:15:43.717Z,61.90
2022-10-04T14:18:59.759Z,62.17
2022-10-04T14:22:00.120Z,61.04
2022-10-04T14:24:51.877Z,61.67
2022-10-04T14:27:44.259Z,61.33
2022-10-04T14:30:20.737Z,60.51
2022-10-04T14:33:19.191Z,62.14
2022-10-04T14:35:57.221Z,62.67
2022-10-04T14:38:56.349Z,62.08
2022-10-04T14:41:56.657Z,61.08
2022-10-04T14:44:45.512Z,61.98
2022-10-04T14:47:28.748Z,61.46
2022-10-04T14:50:09.874Z,61.36
2022-10-04T14:52:50.211Z,61.28
2022-10-04T14:55:49.174Z,62.15
2022-10-04T14:58:26.424Z,62.19
2022-10-04T15:01:12.878Z,61.07
2022-10-04T15:04:00.438Z,62.40
2022-10-04T15:06:40.260Z,62.25
2022-10-04T15:09:21.114Z,61.57
2022-10-04T15:12:25.563Z,62.58
2022-10-04T15:15:07.171Z,63.47
2022-10-04T15:17:40.208Z,62.74
2022-10-04T15:20:20.658Z,61.76
2022-10-04T15:22:54.038Z,62.98
2022-10-04T15:25:55.057Z,62.52
2022-10-04T15:28:47.068Z,62.34
2022-10-04T15:31:22.128Z,62.91
2022-10-04T15:34:02.570Z,62.55
2022-10-04T15:36:49.296Z,62.79
2022-10-04T15:39:44.459Z,61.84
2022-10-04T15:42:17.395Z,62.00
2022-10-04T15:45:18.629Z,64.01
2022-10-04T15:48:06.363Z,64.60
2022-10-04T15:50:40.277Z,63.67
2022-10-04T15:53:26.930Z,63.13
2022-10-04T15:56:25.021Z,62.61
2022-10-04T15:59:29.556Z,64.49
2022-10-04T16:02:24.287Z,64.15
2022-10-04T16:05:03.352Z,64.34
2022-10-04T16:07:40.538Z,65.46
2022-10-04T16:10:19.096Z,64.80
2022-10-04T16:13:14.278Z,63.78
2022-10-04T16:15:48.135Z,64.72
2022-10-04T16:18:40.531Z,62.60
2022-10-04T16:21:26.466Z,64.55
2022-10-04T16:24:30.223Z,65.58
2022-10-04T16:27:24.138Z,64.95
2022-10-04T16:30:25.461Z,63.72
2022-10-04T16:33:06.457Z,63.55
2022-10-04T16:35:41.326Z,64.97
2022-10-04T16:38:23.359Z,64.02
2022-10-04T16:41:09.382Z,66.36
2022-10-04T16:43:48.977Z,65.32
2022-10-04T16:46:30.348Z,66.05
2022-10-04T16:49:02.151Z,65.65
2022-10-04T16:51:53.191Z,66.43
2022-10-04T16:54:47.453Z,66.93
2022-10-04T16:57:22.500Z,67.75
2022-10-04T16:59:54.958Z,66.70
2022-10-04T17:03:00.426Z,67.26
2022-10-04T17:05:44.874Z,67.36
2022-10-04T17:08:27.614Z,68.73
2022-10-04T17:11:28.163Z,67.11
2022-10-04T17:14:00.998Z,66.31
2022-10-04T17:16:36.978Z,67.22
2022-10-04T17:19:28.231Z,66.58
2022-10-04T17:22:07.216Z,66.05
2022-10-04T17:24:51.538Z,66.78
2022-10-04T17:27:46.106Z,66.37
2022-10-04T17:30:18.249Z,65.91
2022-10-04T17:33:00.972Z,67.70
2022-10-04T17:35:59.684Z,66.24
2022-10-04T17:38:36.632Z,66.34
2022-10-04T17:41:16.435Z,66.99
2022-10-04T17:44:07.467Z,66.76
2022-10-04T17:46:42.221Z,65.76
2022-10-04T17:49:37.354Z,65.55
2022-10-04T17:52:31.271Z,66.25
2022-10-04T17:55:16.683Z,65.03
2022-10-04T17:57:51.932Z,64.96
2022-10-04T18:00:23.746Z,65.72
2022-10-04T18:03:02.856Z,66.98
2022-10-04T18:05:35.297Z,64.68
2022-10-04T18:08:14.683Z,66.24
2022-10-04T18:10:50.480Z,67.04
2022-10-04T18:13:29.795Z,66.07
2022-10-04T18:16:07.072Z,65.66
2022-10-04T18:18:41.166Z,65.51
2022-10-04T18:21:27.358Z,67.92
2022-10-04T18:23:58.230Z,65.60
2022-10-04T18:26:29.798Z,65.54
2022-10-04T18:29:01.784Z,65.32
2022-10-04T18:31:37.688Z,64.86
2022-10-04T18:34:28.058Z,66.29
2022-10-04T18:37:16.182Z,64.96
2022-10-04T18:39:53.280Z,65.72
2022-10-04T18:42:28.709Z,66.33
2022-10-04T18:45:00.631Z,67.00
2022-10-04T18:47:35.297Z,66.02
2022-10-04T18:50:16.113Z,65.57
2022-10-04T18:52:55.719Z,67.57
2022-10-04T18:55:31.624Z,66.48
2022-10-04T18:58:28.721Z,67.42
2022-10-04T19:01:29.526Z,66.05
2022-10-04T19:04:01.773Z,66.68
2022-10-04T19:06:33.307Z,67.51
2022-10-04T19:09:08.802Z,66.96
2022-10-04T19:11:42.145Z,65.67
2022-10-04T19:14:24.071Z,66.29
2022-10-04T19:17:00.067Z,67.54
2022-10-04T19:19:42.618Z,66.70
2022-10-04T19:22:23.263Z,67.44
2022-10-04T19:25:02.383Z,67.52
2022-10-04T19:27:36.459Z,65.48
2022-10-04T19:30:15.304Z,67.90
2022-10-04T19:33:13.952Z,67.42
2022-10-04T19:36:09.012Z,66.77
2022-10-04T19:38:52.301Z,67.11
2022-10-04T19:41:39.242Z,66.46
2022-10-04T19:44:21.298Z,65.93
2022-10-04T19:46:57.815Z,65.12
2022-10-04T19:49:38.339Z,68.16
2022-10-04T19:52:21.975Z,65.85
2022-10-04T19:54:54.114Z,65.63
2022-10-04T19:57:31.101Z,64.88
2022-10-04T19:59:59.374Z,65.41
2022-10-04T20:02:27.290Z,65.84
2022-10-04T20:04:57.414Z,66.03
2022-10-04T20:07:27.591Z,65.31
2022-10-04T20:09:57.985Z,65.47
2022-10-04T20:12:37.159Z,65.90
2022-10-04T20:15:43.297Z,64.85
2022-10-04T20:18:51.138Z,67.22
2022-10-04T20:21:31.215Z,66.53
2022-10-04T20:24:01.424Z,66.16
2022-10-04T20:26:53.615Z,66.49
2022-10-04T20:29:57.095Z,66.37
2022-10-04T20:32:56.546Z,65.80
2022-10-04T20:36:04.697Z,65.58
2022-10-04T20:39:06.235Z,65.23
2022-10-04T20:42:05.101Z,67.03
2022-10-04T20:44:44.889Z,66.13
2022-10-04T20:47:31.856Z,65.34
2022-10-04T20:50:01.647Z,66.52
2022-10-04T20:52:31.744Z,65.69
2022-10-04T20:55:02.922Z,65.54
2022-10-04T20:57:40.589Z,65.84
2022-10-04T21:02:17.857Z,66.09
2022-10-04T21:03:50.645Z,65.71
2022-10-04T21:06:18.566Z,67.93
2022-10-04T21:08:46.487Z,65.89
2022-10-04T21:11:20.498Z,65.60
2022-10-04T21:14:00.009Z,65.92
2022-10-04T21:16:47.807Z,64.93
2022-10-04T21:19:50.245Z,66.04
2022-10-04T21:22:39.623Z,66.32
2022-10-04T21:25:35.153Z,66.47
2022-10-04T21:28:30.621Z,66.96
2022-10-04T21:30:58.841Z,66.51
2022-10-04T21:33:26.802Z,67.31
2022-10-04T21:35:54.748Z,67.95
2022-10-04T21:38:22.735Z,65.90
2022-10-04T21:40:50.723Z,65.19
2022-10-04T21:43:18.659Z,66.14
2022-10-04T21:45:48.060Z,65.90
2022-10-04T21:48:16.037Z,65.84
2022-10-04T21:50:44.033Z,68.12
2022-10-04T21:53:12.034Z,66.69
2022-10-04T21:55:40.075Z,66.68
2022-10-04T21:58:08.034Z,68.49
2022-10-04T22:00:36.150Z,67.53
2022-10-04T22:03:05.674Z,66.78
2022-10-04T22:05:33.566Z,67.19
2022-10-04T22:08:01.548Z,67.18
2022-10-04T22:10:29.573Z,66.57
2022-10-04T22:12:57.621Z,67.01
2022-10-04T22:15:27.385Z,69.19
2022-10-04T22:17:56.333Z,67.84
2022-10-04T22:20:26.874Z,67.96
2022-10-04T22:22:55.935Z,67.65
2022-10-04T22:25:25.362Z,66.56
2022-10-04T22:27:54.321Z,66.39
2022-10-04T22:30:25.064Z,67.08
2022-10-04T22:32:56.235Z,66.40
2022-10-04T22:35:26.039Z,66.82
2022-10-04T22:37:54.621Z,66.08
2022-10-04T22:40:24.226Z,66.75
2022-10-04T22:42:53.658Z,66.02
2022-10-04T22:45:25.013Z,65.48
2022-10-04T22:47:53.372Z,65.69
2022-10-04T22:50:34.340Z,66.22
2022-10-04T22:53:08.605Z,65.62
2022-10-04T22:55:36.734Z,65.88
2022-10-04T22:58:05.445Z,66.20
2022-10-04T23:00:33.411Z,65.96
2022-10-04T23:03:02.106Z,66.13
2022-10-04T23:05:30.231Z,65.93
2022-10-04T23:07:59.495Z,66.94
2022-10-04T23:10:27.489Z,65.73
2022-10-04T23:12:55.405Z,66.10
2022-10-04T23:15:23.468Z,65.87
2022-10-04T23:17:55.604Z,65.53
2022-10-04T23:20:24.245Z,66.51
2022-10-04T23:22:54.630Z,65.69
2022-10-04T23:25:27.594Z,65.91
2022-10-04T23:27:59.506Z,66.18
2022-10-04T23:30:27.784Z,65.95
2022-10-04T23:33:01.067Z,65.75
2022-10-04T23:35:33.265Z,66.24
2022-10-04T23:38:07.045Z,65.98
2022-10-04T23:40:36.564Z,65.34
2022-10-04T23:43:06.718Z,66.00
2022-10-04T23:45:41.692Z,65.34
2022-10-04T23:48:12.179Z,65.39
2022-10-04T23:50:40.754Z,66.80
2022-10-04T23:53:23.991Z,66.07
2022-10-04T23:55:54.951Z,66.27
2022-10-04T23:58:24.931Z,66.62
